sensor_id;sensor_type;location;lat;lon;timestamp;P1;durP1;ratioP1;P2;durP2;ratioP2
16436;SDS011;8328;52.206;21.006;2024-02-26T00:01:42;113.13;;;38.43;;
16436;SDS011;8328;52.206;21.006;2024-02-26T00:04:09;118.88;;;39.65;;
16436;SDS011;8328;52.206;21.006;2024-02-26T00:06:35;124.80;;;42.40;;
16436;SDS011;8328;52.206;21.006;2024-02-26T00:09:02;113.10;;;38.88;;
16436;SDS011;8328;52.206;21.006;2024-02-26T00:11:31;118.05;;;38.85;;
16436;SDS011;8328;52.206;21.006;2024-02-26T00:13:56;115.57;;;38.10;;
16436;SDS011;8328;52.206;21.006;2024-02-26T00:16:23;116.97;;;38.72;;
16436;SDS011;8328;52.206;21.006;2024-02-26T00:18:49;117.75;;;39.20;;
16436;SDS011;8328;52.206;21.006;2024-02-26T00:21:15;120.67;;;39.87;;
16436;SDS011;8328;52.206;21.006;2024-02-26T00:23:41;115.50;;;38.80;;
16436;SDS011;8328;52.206;21.006;2024-02-26T00:26:07;117.00;;;38.53;;
16436;SDS011;8328;52.206;21.006;2024-02-26T00:28:33;117.45;;;39.25;;
16436;SDS011;8328;52.206;21.006;2024-02-26T00:31:00;113.95;;;38.25;;
16436;SDS011;8328;52.206;21.006;2024-02-26T00:33:26;122.93;;;39.20;;
16436;SDS011;8328;52.206;21.006;2024-02-26T00:35:52;121.25;;;39.03;;
16436;SDS011;8328;52.206;21.006;2024-02-26T00:38:17;123.50;;;39.87;;
16436;SDS011;8328;52.206;21.006;2024-02-26T00:40:43;136.30;;;42.13;;
16436;SDS011;8328;52.206;21.006;2024-02-26T00:43:09;133.18;;;40.60;;
16436;SDS011;8328;52.206;21.006;2024-02-26T00:45:35;131.10;;;39.67;;
16436;SDS011;8328;52.206;21.006;2024-02-26T00:48:01;130.97;;;40.23;;
16436;SDS011;8328;52.206;21.006;2024-02-26T00:50:30;123.43;;;38.80;;
16436;SDS011;8328;52.206;21.006;2024-02-26T00:52:56;128.70;;;39.80;;
16436;SDS011;8328;52.206;21.006;2024-02-26T00:55:22;123.13;;;38.43;;
16436;SDS011;8328;52.206;21.006;2024-02-26T00:57:48;127.80;;;39.67;;
16436;SDS011;8328;52.206;21.006;2024-02-26T01:00:14;124.83;;;39.10;;
16436;SDS011;8328;52.206;21.006;2024-02-26T01:02:40;125.72;;;40.17;;
16436;SDS011;8328;52.206;21.006;2024-02-26T01:05:07;123.57;;;38.70;;
16436;SDS011;8328;52.206;21.006;2024-02-26T01:07:36;121.65;;;38.58;;
16436;SDS011;8328;52.206;21.006;2024-02-26T01:10:02;125.90;;;39.80;;
16436;SDS011;8328;52.206;21.006;2024-02-26T01:12:28;127.15;;;39.88;;
16436;SDS011;8328;52.206;21.006;2024-02-26T01:14:54;125.50;;;39.57;;
16436;SDS011;8328;52.206;21.006;2024-02-26T01:17:19;124.67;;;39.57;;
16436;SDS011;8328;52.206;21.006;2024-02-26T01:19:45;125.80;;;40.30;;
16436;SDS011;8328;52.206;21.006;2024-02-26T01:22:11;125.27;;;40.47;;
16436;SDS011;8328;52.206;21.006;2024-02-26T01:24:37;127.90;;;40.33;;
16436;SDS011;8328;52.206;21.006;2024-02-26T01:27:03;121.60;;;38.70;;
16436;SDS011;8328;52.206;21.006;2024-02-26T01:29:29;125.15;;;39.83;;
16436;SDS011;8328;52.206;21.006;2024-02-26T01:31:54;122.47;;;38.93;;
16436;SDS011;8328;52.206;21.006;2024-02-26T01:34:20;125.57;;;40.10;;
16436;SDS011;8328;52.206;21.006;2024-02-26T01:36:46;123.63;;;40.45;;
16436;SDS011;8328;52.206;21.006;2024-02-26T01:39:12;127.30;;;40.85;;
16436;SDS011;8328;52.206;21.006;2024-02-26T01:41:38;121.23;;;39.07;;
16436;SDS011;8328;52.206;21.006;2024-02-26T01:44:06;129.02;;;40.65;;
16436;SDS011;8328;52.206;21.006;2024-02-26T01:46:33;119.80;;;38.38;;
16436;SDS011;8328;52.206;21.006;2024-02-26T01:48:59;122.90;;;39.85;;
16436;SDS011;8328;52.206;21.006;2024-02-26T01:51:27;119.93;;;38.97;;
16436;SDS011;8328;52.206;21.006;2024-02-26T01:53:53;125.32;;;40.80;;
16436;SDS011;8328;52.206;21.006;2024-02-26T01:56:19;120.33;;;39.23;;
16436;SDS011;8328;52.206;21.006;2024-02-26T01:58:46;117.85;;;38.70;;
16436;SDS011;8328;52.206;21.006;2024-02-26T02:01:13;125.28;;;40.10;;
16436;SDS011;8328;52.206;21.006;2024-02-26T02:03:45;120.10;;;39.60;;
16436;SDS011;8328;52.206;21.006;2024-02-26T02:06:11;123.97;;;40.08;;
16436;SDS011;8328;52.206;21.006;2024-02-26T02:08:37;116.93;;;38.13;;
16436;SDS011;8328;52.206;21.006;2024-02-26T02:11:04;116.45;;;38.92;;
16436;SDS011;8328;52.206;21.006;2024-02-26T02:13:31;114.03;;;38.35;;
16436;SDS011;8328;52.206;21.006;2024-02-26T02:15:56;120.63;;;39.57;;
16436;SDS011;8328;52.206;21.006;2024-02-26T02:18:22;118.63;;;39.20;;
16436;SDS011;8328;52.206;21.006;2024-02-26T02:20:48;119.37;;;39.77;;
16436;SDS011;8328;52.206;21.006;2024-02-26T02:23:14;119.97;;;40.37;;
16436;SDS011;8328;52.206;21.006;2024-02-26T02:25:40;117.30;;;38.37;;
16436;SDS011;8328;52.206;21.006;2024-02-26T02:28:05;115.43;;;39.23;;
16436;SDS011;8328;52.206;21.006;2024-02-26T02:30:31;114.80;;;39.03;;
16436;SDS011;8328;52.206;21.006;2024-02-26T02:32:58;114.15;;;38.20;;
16436;SDS011;8328;52.206;21.006;2024-02-26T02:35:24;114.68;;;38.53;;
16436;SDS011;8328;52.206;21.006;2024-02-26T02:37:54;117.38;;;39.40;;
16436;SDS011;8328;52.206;21.006;2024-02-26T02:40:21;115.45;;;38.35;;
16436;SDS011;8328;52.206;21.006;2024-02-26T02:42:46;116.90;;;38.87;;
16436;SDS011;8328;52.206;21.006;2024-02-26T02:45:12;112.90;;;38.30;;
16436;SDS011;8328;52.206;21.006;2024-02-26T02:47:38;114.97;;;38.90;;
16436;SDS011;8328;52.206;21.006;2024-02-26T02:50:04;119.67;;;40.53;;
16436;SDS011;8328;52.206;21.006;2024-02-26T02:52:30;117.15;;;39.70;;
16436;SDS011;8328;52.206;21.006;2024-02-26T02:54:56;115.53;;;39.47;;
16436;SDS011;8328;52.206;21.006;2024-02-26T02:57:23;118.00;;;39.20;;
16436;SDS011;8328;52.206;21.006;2024-02-26T02:59:48;111.80;;;37.57;;
16436;SDS011;8328;52.206;21.006;2024-02-26T03:02:14;116.20;;;39.17;;
16436;SDS011;8328;52.206;21.006;2024-02-26T03:04:40;113.00;;;38.10;;
16436;SDS011;8328;52.206;21.006;2024-02-26T03:07:06;115.57;;;39.90;;
16436;SDS011;8328;52.206;21.006;2024-02-26T03:09:32;109.20;;;37.83;;
16436;SDS011;8328;52.206;21.006;2024-02-26T03:11:58;110.53;;;38.43;;
16436;SDS011;8328;52.206;21.006;2024-02-26T03:14:23;113.13;;;40.97;;
16436;SDS011;8328;52.206;21.006;2024-02-26T03:16:52;114.63;;;39.78;;
16436;SDS011;8328;52.206;21.006;2024-02-26T03:19:24;152.63;;;41.30;;
16436;SDS011;8328;52.206;21.006;2024-02-26T03:21:50;118.27;;;40.20;;
16436;SDS011;8328;52.206;21.006;2024-02-26T03:24:15;113.77;;;38.43;;
16436;SDS011;8328;52.206;21.006;2024-02-26T03:26:41;118.80;;;40.13;;
16436;SDS011;8328;52.206;21.006;2024-02-26T03:29:08;111.25;;;38.28;;
16436;SDS011;8328;52.206;21.006;2024-02-26T03:31:33;117.90;;;40.90;;
16436;SDS011;8328;52.206;21.006;2024-02-26T03:33:59;115.60;;;40.33;;
16436;SDS011;8328;52.206;21.006;2024-02-26T03:36:25;111.60;;;38.57;;
16436;SDS011;8328;52.206;21.006;2024-02-26T03:38:51;114.57;;;39.20;;
16436;SDS011;8328;52.206;21.006;2024-02-26T03:41:17;116.68;;;39.63;;
16436;SDS011;8328;52.206;21.006;2024-02-26T03:43:43;116.43;;;40.37;;
16436;SDS011;8328;52.206;21.006;2024-02-26T03:46:10;111.05;;;38.53;;
16436;SDS011;8328;52.206;21.006;2024-02-26T03:48:38;116.22;;;40.47;;
16436;SDS011;8328;52.206;21.006;2024-02-26T03:51:05;113.75;;;39.33;;
16436;SDS011;8328;52.206;21.006;2024-02-26T03:53:31;114.20;;;39.17;;
16436;SDS011;8328;52.206;21.006;2024-02-26T03:55:57;112.13;;;38.97;;
16436;SDS011;8328;52.206;21.006;2024-02-26T03:58:22;117.30;;;40.23;;
16436;SDS011;8328;52.206;21.006;2024-02-26T04:00:48;111.83;;;38.90;;
16436;SDS011;8328;52.206;21.006;2024-02-26T04:03:14;113.00;;;39.67;;
16436;SDS011;8328;52.206;21.006;2024-02-26T04:05:40;111.17;;;38.37;;
16436;SDS011;8328;52.206;21.006;2024-02-26T04:08:05;112.87;;;39.30;;
16436;SDS011;8328;52.206;21.006;2024-02-26T04:10:32;118.15;;;40.65;;
16436;SDS011;8328;52.206;21.006;2024-02-26T04:13:00;120.55;;;42.38;;
16436;SDS011;8328;52.206;21.006;2024-02-26T04:15:26;109.05;;;38.25;;
16436;SDS011;8328;52.206;21.006;2024-02-26T04:17:52;107.80;;;37.95;;
16436;SDS011;8328;52.206;21.006;2024-02-26T04:20:18;112.33;;;39.53;;
16436;SDS011;8328;52.206;21.006;2024-02-26T04:22:44;114.97;;;39.40;;
16436;SDS011;8328;52.206;21.006;2024-02-26T04:25:10;115.35;;;38.85;;
16436;SDS011;8328;52.206;21.006;2024-02-26T04:27:36;119.65;;;40.70;;
16436;SDS011;8328;52.206;21.006;2024-02-26T04:30:02;116.50;;;39.03;;
16436;SDS011;8328;52.206;21.006;2024-02-26T04:32:29;113.70;;;39.47;;
16436;SDS011;8328;52.206;21.006;2024-02-26T04:34:54;113.90;;;40.17;;
16436;SDS011;8328;52.206;21.006;2024-02-26T04:37:20;113.43;;;39.33;;
16436;SDS011;8328;52.206;21.006;2024-02-26T04:39:46;115.87;;;40.90;;
16436;SDS011;8328;52.206;21.006;2024-02-26T04:42:12;114.40;;;39.37;;
16436;SDS011;8328;52.206;21.006;2024-02-26T04:44:38;119.57;;;41.97;;
16436;SDS011;8328;52.206;21.006;2024-02-26T04:47:03;112.70;;;38.67;;
16436;SDS011;8328;52.206;21.006;2024-02-26T04:49:29;116.97;;;40.63;;
16436;SDS011;8328;52.206;21.006;2024-02-26T04:51:55;116.17;;;41.47;;
16436;SDS011;8328;52.206;21.006;2024-02-26T04:54:24;115.97;;;40.45;;
16436;SDS011;8328;52.206;21.006;2024-02-26T04:56:49;110.10;;;39.07;;
16436;SDS011;8328;52.206;21.006;2024-02-26T04:59:15;115.30;;;42.13;;
16436;SDS011;8328;52.206;21.006;2024-02-26T05:01:41;109.07;;;39.03;;
16436;SDS011;8328;52.206;21.006;2024-02-26T05:04:07;113.70;;;40.00;;
16436;SDS011;8328;52.206;21.006;2024-02-26T05:06:33;108.27;;;37.77;;
16436;SDS011;8328;52.206;21.006;2024-02-26T05:08:58;109.97;;;38.63;;
16436;SDS011;8328;52.206;21.006;2024-02-26T05:11:24;107.27;;;38.13;;
16436;SDS011;8328;52.206;21.006;2024-02-26T05:13:50;107.25;;;37.45;;
16436;SDS011;8328;52.206;21.006;2024-02-26T05:16:16;112.00;;;39.37;;
16436;SDS011;8328;52.206;21.006;2024-02-26T05:18:42;107.43;;;37.77;;
16436;SDS011;8328;52.206;21.006;2024-02-26T05:21:09;109.10;;;38.53;;
16436;SDS011;8328;52.206;21.006;2024-02-26T05:23:35;110.18;;;39.03;;
16436;SDS011;8328;52.206;21.006;2024-02-26T05:26:01;110.80;;;38.73;;
16436;SDS011;8328;52.206;21.006;2024-02-26T05:28:26;110.17;;;39.00;;
16436;SDS011;8328;52.206;21.006;2024-02-26T05:30:52;112.03;;;39.13;;
16436;SDS011;8328;52.206;21.006;2024-02-26T05:33:18;112.93;;;40.10;;
16436;SDS011;8328;52.206;21.006;2024-02-26T05:35:43;110.33;;;38.20;;
16436;SDS011;8328;52.206;21.006;2024-02-26T05:38:09;112.33;;;40.03;;
16436;SDS011;8328;52.206;21.006;2024-02-26T05:40:35;108.20;;;38.07;;
16436;SDS011;8328;52.206;21.006;2024-02-26T05:43:01;110.40;;;38.63;;
16436;SDS011;8328;52.206;21.006;2024-02-26T05:45:26;108.17;;;38.83;;
16436;SDS011;8328;52.206;21.006;2024-02-26T05:47:52;110.63;;;39.67;;
16436;SDS011;8328;52.206;21.006;2024-02-26T05:50:18;114.43;;;42.17;;
16436;SDS011;8328;52.206;21.006;2024-02-26T05:52:44;109.17;;;38.33;;
16436;SDS011;8328;52.206;21.006;2024-02-26T05:55:09;114.07;;;40.47;;
16436;SDS011;8328;52.206;21.006;2024-02-26T05:57:35;111.10;;;39.83;;
16436;SDS011;8328;52.206;21.006;2024-02-26T06:00:01;109.05;;;41.42;;
16436;SDS011;8328;52.206;21.006;2024-02-26T06:02:30;110.90;;;42.97;;
16436;SDS011;8328;52.206;21.006;2024-02-26T06:04:56;113.77;;;40.53;;
16436;SDS011;8328;52.206;21.006;2024-02-26T06:07:23;115.57;;;41.22;;
16436;SDS011;8328;52.206;21.006;2024-02-26T06:09:49;116.90;;;41.28;;
16436;SDS011;8328;52.206;21.006;2024-02-26T06:12:14;111.87;;;39.47;;
16436;SDS011;8328;52.206;21.006;2024-02-26T06:14:41;113.17;;;39.10;;
16436;SDS011;8328;52.206;21.006;2024-02-26T06:17:08;112.95;;;39.60;;
16436;SDS011;8328;52.206;21.006;2024-02-26T06:19:34;117.40;;;41.70;;
16436;SDS011;8328;52.206;21.006;2024-02-26T06:22:00;114.20;;;40.53;;
16436;SDS011;8328;52.206;21.006;2024-02-26T06:24:25;115.27;;;39.47;;
16436;SDS011;8328;52.206;21.006;2024-02-26T06:26:51;120.87;;;41.10;;
16436;SDS011;8328;52.206;21.006;2024-02-26T06:29:17;121.40;;;40.88;;
16436;SDS011;8328;52.206;21.006;2024-02-26T06:31:43;120.50;;;41.87;;
16436;SDS011;8328;52.206;21.006;2024-02-26T06:34:09;126.13;;;42.93;;
16436;SDS011;8328;52.206;21.006;2024-02-26T06:36:34;126.60;;;42.83;;
16436;SDS011;8328;52.206;21.006;2024-02-26T06:39:00;133.50;;;45.63;;
16436;SDS011;8328;52.206;21.006;2024-02-26T06:41:26;138.07;;;44.60;;
16436;SDS011;8328;52.206;21.006;2024-02-26T06:43:55;137.60;;;44.58;;
16436;SDS011;8328;52.206;21.006;2024-02-26T06:46:21;138.03;;;45.23;;
16436;SDS011;8328;52.206;21.006;2024-02-26T06:48:50;129.35;;;42.10;;
16436;SDS011;8328;52.206;21.006;2024-02-26T06:51:16;130.77;;;43.63;;
16436;SDS011;8328;52.206;21.006;2024-02-26T06:53:43;132.88;;;43.28;;
16436;SDS011;8328;52.206;21.006;2024-02-26T06:56:08;133.63;;;42.17;;
16436;SDS011;8328;52.206;21.006;2024-02-26T06:58:34;129.27;;;42.13;;
16436;SDS011;8328;52.206;21.006;2024-02-26T07:01:00;134.10;;;42.10;;
16436;SDS011;8328;52.206;21.006;2024-02-26T07:03:25;135.23;;;43.97;;
16436;SDS011;8328;52.206;21.006;2024-02-26T07:05:51;134.70;;;41.57;;
16436;SDS011;8328;52.206;21.006;2024-02-26T07:08:17;132.30;;;41.27;;
16436;SDS011;8328;52.206;21.006;2024-02-26T07:10:43;131.30;;;41.53;;
16436;SDS011;8328;52.206;21.006;2024-02-26T07:13:09;131.13;;;42.10;;
16436;SDS011;8328;52.206;21.006;2024-02-26T07:15:35;126.37;;;40.17;;
16436;SDS011;8328;52.206;21.006;2024-02-26T07:18:00;121.63;;;38.70;;
16436;SDS011;8328;52.206;21.006;2024-02-26T07:20:29;134.57;;;41.78;;
16436;SDS011;8328;52.206;21.006;2024-02-26T07:22:56;124.28;;;40.33;;
16436;SDS011;8328;52.206;21.006;2024-02-26T07:25:22;128.50;;;41.88;;
16436;SDS011;8328;52.206;21.006;2024-02-26T07:27:49;141.55;;;43.97;;
16436;SDS011;8328;52.206;21.006;2024-02-26T07:30:15;124.43;;;40.63;;
16436;SDS011;8328;52.206;21.006;2024-02-26T07:32:42;124.00;;;40.85;;
16436;SDS011;8328;52.206;21.006;2024-02-26T07:35:08;121.68;;;40.38;;
16436;SDS011;8328;52.206;21.006;2024-02-26T07:37:34;122.30;;;39.83;;
16436;SDS011;8328;52.206;21.006;2024-02-26T07:40:00;122.47;;;39.95;;
16436;SDS011;8328;52.206;21.006;2024-02-26T07:42:26;124.18;;;41.08;;
16436;SDS011;8328;52.206;21.006;2024-02-26T07:44:52;121.85;;;40.50;;
16436;SDS011;8328;52.206;21.006;2024-02-26T07:47:18;125.07;;;41.73;;
16436;SDS011;8328;52.206;21.006;2024-02-26T07:49:44;120.05;;;39.55;;
16436;SDS011;8328;52.206;21.006;2024-02-26T07:52:10;122.07;;;41.17;;
16436;SDS011;8328;52.206;21.006;2024-02-26T07:54:36;118.33;;;39.23;;
16436;SDS011;8328;52.206;21.006;2024-02-26T07:57:01;123.07;;;41.00;;
16436;SDS011;8328;52.206;21.006;2024-02-26T07:59:30;121.60;;;41.45;;
16436;SDS011;8328;52.206;21.006;2024-02-26T08:01:56;116.68;;;39.65;;
16436;SDS011;8328;52.206;21.006;2024-02-26T08:04:22;118.10;;;40.67;;
16436;SDS011;8328;52.206;21.006;2024-02-26T08:06:48;118.47;;;40.80;;
16436;SDS011;8328;52.206;21.006;2024-02-26T08:09:14;120.57;;;41.20;;
16436;SDS011;8328;52.206;21.006;2024-02-26T08:11:42;119.80;;;40.37;;
16436;SDS011;8328;52.206;21.006;2024-02-26T08:14:07;121.65;;;41.20;;
16436;SDS011;8328;52.206;21.006;2024-02-26T08:16:33;115.45;;;39.97;;
16436;SDS011;8328;52.206;21.006;2024-02-26T08:18:59;120.93;;;41.20;;
16436;SDS011;8328;52.206;21.006;2024-02-26T08:21:25;125.77;;;43.40;;
16436;SDS011;8328;52.206;21.006;2024-02-26T08:23:51;128.37;;;43.53;;
16436;SDS011;8328;52.206;21.006;2024-02-26T08:26:16;116.10;;;40.27;;
16436;SDS011;8328;52.206;21.006;2024-02-26T08:28:45;121.30;;;43.53;;
16436;SDS011;8328;52.206;21.006;2024-02-26T08:31:12;118.93;;;40.58;;
16436;SDS011;8328;52.206;21.006;2024-02-26T08:33:38;117.57;;;42.20;;
16436;SDS011;8328;52.206;21.006;2024-02-26T08:36:04;112.87;;;38.20;;
16436;SDS011;8328;52.206;21.006;2024-02-26T08:38:31;115.53;;;39.25;;
16436;SDS011;8328;52.206;21.006;2024-02-26T08:40:57;117.63;;;40.30;;
16436;SDS011;8328;52.206;21.006;2024-02-26T08:43:22;119.07;;;41.53;;
16436;SDS011;8328;52.206;21.006;2024-02-26T08:45:48;116.60;;;39.87;;
16436;SDS011;8328;52.206;21.006;2024-02-26T08:48:14;115.90;;;40.37;;
16436;SDS011;8328;52.206;21.006;2024-02-26T08:50:40;122.50;;;42.50;;
16436;SDS011;8328;52.206;21.006;2024-02-26T08:53:06;115.43;;;39.80;;
16436;SDS011;8328;52.206;21.006;2024-02-26T08:55:32;117.47;;;40.25;;
16436;SDS011;8328;52.206;21.006;2024-02-26T08:57:58;116.35;;;40.35;;
16436;SDS011;8328;52.206;21.006;2024-02-26T09:00:24;114.27;;;39.40;;
16436;SDS011;8328;52.206;21.006;2024-02-26T09:02:50;115.97;;;40.37;;
16436;SDS011;8328;52.206;21.006;2024-02-26T09:05:16;116.60;;;40.90;;
16436;SDS011;8328;52.206;21.006;2024-02-26T09:07:45;117.10;;;40.92;;
16436;SDS011;8328;52.206;21.006;2024-02-26T09:10:11;115.30;;;39.75;;
16436;SDS011;8328;52.206;21.006;2024-02-26T09:12:38;115.07;;;39.57;;
16436;SDS011;8328;52.206;21.006;2024-02-26T09:15:05;114.35;;;39.03;;
16436;SDS011;8328;52.206;21.006;2024-02-26T09:17:32;126.90;;;43.75;;
16436;SDS011;8328;52.206;21.006;2024-02-26T09:19:58;119.03;;;41.57;;
16436;SDS011;8328;52.206;21.006;2024-02-26T09:22:23;117.00;;;40.60;;
16436;SDS011;8328;52.206;21.006;2024-02-26T09:24:49;114.60;;;40.47;;
16436;SDS011;8328;52.206;21.006;2024-02-26T09:27:17;116.07;;;41.05;;
16436;SDS011;8328;52.206;21.006;2024-02-26T09:29:43;111.93;;;38.78;;
16436;SDS011;8328;52.206;21.006;2024-02-26T09:32:09;122.07;;;43.13;;
16436;SDS011;8328;52.206;21.006;2024-02-26T09:34:35;112.97;;;39.33;;
16436;SDS011;8328;52.206;21.006;2024-02-26T09:37:01;116.47;;;41.58;;
16436;SDS011;8328;52.206;21.006;2024-02-26T09:39:27;114.03;;;39.53;;
16436;SDS011;8328;52.206;21.006;2024-02-26T09:41:53;116.63;;;40.87;;
16436;SDS011;8328;52.206;21.006;2024-02-26T09:44:20;119.43;;;42.78;;
16436;SDS011;8328;52.206;21.006;2024-02-26T09:46:49;119.97;;;42.53;;
16436;SDS011;8328;52.206;21.006;2024-02-26T09:49:18;121.47;;;42.45;;
16436;SDS011;8328;52.206;21.006;2024-02-26T09:51:49;144.38;;;51.60;;
16436;SDS011;8328;52.206;21.006;2024-02-26T09:54:17;126.00;;;44.00;;
16436;SDS011;8328;52.206;21.006;2024-02-26T09:56:43;115.03;;;40.28;;
16436;SDS011;8328;52.206;21.006;2024-02-26T09:59:14;117.90;;;41.75;;
16436;SDS011;8328;52.206;21.006;2024-02-26T10:01:42;121.20;;;42.97;;
16436;SDS011;8328;52.206;21.006;2024-02-26T10:04:11;114.93;;;40.55;;
16436;SDS011;8328;52.206;21.006;2024-02-26T10:06:38;114.43;;;41.30;;
16436;SDS011;8328;52.206;21.006;2024-02-26T10:09:05;116.50;;;42.05;;
16436;SDS011;8328;52.206;21.006;2024-02-26T10:11:34;113.82;;;40.42;;
16436;SDS011;8328;52.206;21.006;2024-02-26T10:14:02;113.97;;;40.33;;
16436;SDS011;8328;52.206;21.006;2024-02-26T10:16:28;113.10;;;41.03;;
16436;SDS011;8328;52.206;21.006;2024-02-26T10:18:55;115.20;;;41.72;;
16436;SDS011;8328;52.206;21.006;2024-02-26T10:21:21;120.83;;;43.83;;
16436;SDS011;8328;52.206;21.006;2024-02-26T10:23:47;113.50;;;40.33;;
16436;SDS011;8328;52.206;21.006;2024-02-26T10:26:14;117.35;;;41.00;;
16436;SDS011;8328;52.206;21.006;2024-02-26T10:28:44;116.95;;;42.90;;
16436;SDS011;8328;52.206;21.006;2024-02-26T10:31:10;111.65;;;39.00;;
16436;SDS011;8328;52.206;21.006;2024-02-26T10:33:38;120.38;;;42.00;;
16436;SDS011;8328;52.206;21.006;2024-02-26T10:36:05;114.00;;;39.55;;
16436;SDS011;8328;52.206;21.006;2024-02-26T10:38:33;111.03;;;40.00;;
16436;SDS011;8328;52.206;21.006;2024-02-26T10:41:03;144.82;;;53.88;;
16436;SDS011;8328;52.206;21.006;2024-02-26T10:43:30;113.28;;;41.70;;
16436;SDS011;8328;52.206;21.006;2024-02-26T10:45:56;109.93;;;40.23;;
16436;SDS011;8328;52.206;21.006;2024-02-26T10:48:22;113.50;;;40.72;;
16436;SDS011;8328;52.206;21.006;2024-02-26T10:50:49;108.00;;;39.58;;
16436;SDS011;8328;52.206;21.006;2024-02-26T10:53:21;103.95;;;38.05;;
16436;SDS011;8328;52.206;21.006;2024-02-26T10:55:54;110.78;;;40.35;;
16436;SDS011;8328;52.206;21.006;2024-02-26T10:58:22;109.10;;;39.58;;
16436;SDS011;8328;52.206;21.006;2024-02-26T11:00:52;110.32;;;40.00;;
16436;SDS011;8328;52.206;21.006;2024-02-26T11:03:26;110.85;;;40.17;;
16436;SDS011;8328;52.206;21.006;2024-02-26T11:06:00;107.63;;;38.35;;
16436;SDS011;8328;52.206;21.006;2024-02-26T11:08:26;109.47;;;39.20;;
16436;SDS011;8328;52.206;21.006;2024-02-26T11:10:53;110.00;;;39.75;;
16436;SDS011;8328;52.206;21.006;2024-02-26T11:13:21;109.88;;;39.30;;
16436;SDS011;8328;52.206;21.006;2024-02-26T11:15:52;105.75;;;38.53;;
16436;SDS011;8328;52.206;21.006;2024-02-26T11:18:19;109.85;;;39.78;;
16436;SDS011;8328;52.206;21.006;2024-02-26T11:20:47;117.30;;;42.60;;
16436;SDS011;8328;52.206;21.006;2024-02-26T11:23:14;113.18;;;40.83;;
16436;SDS011;8328;52.206;21.006;2024-02-26T11:25:40;115.57;;;40.70;;
16436;SDS011;8328;52.206;21.006;2024-02-26T11:28:09;126.75;;;43.83;;
16436;SDS011;8328;52.206;21.006;2024-02-26T11:30:38;122.40;;;41.88;;
16436;SDS011;8328;52.206;21.006;2024-02-26T11:33:08;118.63;;;40.55;;
16436;SDS011;8328;52.206;21.006;2024-02-26T11:35:38;115.72;;;40.28;;
16436;SDS011;8328;52.206;21.006;2024-02-26T11:38:05;113.70;;;38.90;;
16436;SDS011;8328;52.206;21.006;2024-02-26T11:40:32;122.18;;;42.83;;
16436;SDS011;8328;52.206;21.006;2024-02-26T11:43:03;118.18;;;40.53;;
16436;SDS011;8328;52.206;21.006;2024-02-26T11:48:05;117.72;;;40.42;;
16436;SDS011;8328;52.206;21.006;2024-02-26T11:50:39;118.10;;;39.80;;
16436;SDS011;8328;52.206;21.006;2024-02-26T11:53:19;125.45;;;41.90;;
16436;SDS011;8328;52.206;21.006;2024-02-26T11:58:57;122.75;;;40.90;;
16436;SDS011;8328;52.206;21.006;2024-02-26T12:01:37;123.22;;;41.13;;
16436;SDS011;8328;52.206;21.006;2024-02-26T12:04:07;119.70;;;40.45;;
16436;SDS011;8328;52.206;21.006;2024-02-26T12:06:45;120.50;;;40.30;;
16436;SDS011;8328;52.206;21.006;2024-02-26T12:09:11;126.15;;;42.47;;
16436;SDS011;8328;52.206;21.006;2024-02-26T12:11:41;132.30;;;46.60;;
16436;SDS011;8328;52.206;21.006;2024-02-26T12:14:10;127.43;;;43.45;;
16436;SDS011;8328;52.206;21.006;2024-02-26T12:16:37;126.25;;;41.58;;
16436;SDS011;8328;52.206;21.006;2024-02-26T12:19:04;128.30;;;42.40;;
16436;SDS011;8328;52.206;21.006;2024-02-26T12:21:33;126.63;;;41.58;;
16436;SDS011;8328;52.206;21.006;2024-02-26T12:24:10;126.85;;;41.90;;
16436;SDS011;8328;52.206;21.006;2024-02-26T12:26:38;124.85;;;41.35;;
16436;SDS011;8328;52.206;21.006;2024-02-26T12:29:04;121.75;;;40.38;;
16436;SDS011;8328;52.206;21.006;2024-02-26T12:31:30;121.43;;;40.60;;
16436;SDS011;8328;52.206;21.006;2024-02-26T12:33:58;119.35;;;39.90;;
16436;SDS011;8328;52.206;21.006;2024-02-26T12:36:27;123.75;;;41.90;;
16436;SDS011;8328;52.206;21.006;2024-02-26T12:38:53;117.97;;;40.03;;
16436;SDS011;8328;52.206;21.006;2024-02-26T12:41:20;122.07;;;41.28;;
16436;SDS011;8328;52.206;21.006;2024-02-26T12:43:47;116.55;;;39.80;;
16436;SDS011;8328;52.206;21.006;2024-02-26T12:46:13;115.70;;;39.70;;
16436;SDS011;8328;52.206;21.006;2024-02-26T12:48:44;120.57;;;41.55;;
16436;SDS011;8328;52.206;21.006;2024-02-26T12:51:11;118.40;;;40.85;;
16436;SDS011;8328;52.206;21.006;2024-02-26T12:53:39;117.78;;;40.70;;
16436;SDS011;8328;52.206;21.006;2024-02-26T12:56:08;117.23;;;40.17;;
16436;SDS011;8328;52.206;21.006;2024-02-26T12:58:35;117.72;;;40.88;;
16436;SDS011;8328;52.206;21.006;2024-02-26T13:01:04;115.45;;;40.00;;
16436;SDS011;8328;52.206;21.006;2024-02-26T13:03:30;110.53;;;38.17;;
16436;SDS011;8328;52.206;21.006;2024-02-26T13:05:57;113.95;;;39.42;;
16436;SDS011;8328;52.206;21.006;2024-02-26T13:08:23;113.13;;;40.20;;
16436;SDS011;8328;52.206;21.006;2024-02-26T13:10:49;113.63;;;40.50;;
16436;SDS011;8328;52.206;21.006;2024-02-26T13:13:18;117.57;;;42.05;;
16436;SDS011;8328;52.206;21.006;2024-02-26T13:15:45;111.88;;;39.25;;
16436;SDS011;8328;52.206;21.006;2024-02-26T13:18:11;110.70;;;38.75;;
16436;SDS011;8328;52.206;21.006;2024-02-26T13:20:38;108.50;;;37.50;;
16436;SDS011;8328;52.206;21.006;2024-02-26T13:23:07;118.40;;;40.35;;
16436;SDS011;8328;52.206;21.006;2024-02-26T13:25:37;113.53;;;39.55;;
16436;SDS011;8328;52.206;21.006;2024-02-26T13:30:33;113.38;;;39.58;;
16436;SDS011;8328;52.206;21.006;2024-02-26T13:33:07;111.80;;;38.75;;
16436;SDS011;8328;52.206;21.006;2024-02-26T13:35:35;110.07;;;38.50;;
16436;SDS011;8328;52.206;21.006;2024-02-26T13:38:02;113.30;;;39.57;;
16436;SDS011;8328;52.206;21.006;2024-02-26T13:40:28;110.93;;;39.00;;
16436;SDS011;8328;52.206;21.006;2024-02-26T13:42:54;110.15;;;38.78;;
16436;SDS011;8328;52.206;21.006;2024-02-26T13:45:20;110.43;;;38.63;;
16436;SDS011;8328;52.206;21.006;2024-02-26T13:47:45;110.57;;;38.77;;
16436;SDS011;8328;52.206;21.006;2024-02-26T13:50:11;108.70;;;38.33;;
16436;SDS011;8328;52.206;21.006;2024-02-26T13:52:40;109.73;;;38.93;;
16436;SDS011;8328;52.206;21.006;2024-02-26T13:55:06;112.00;;;40.03;;
16436;SDS011;8328;52.206;21.006;2024-02-26T13:57:35;110.45;;;39.05;;
16436;SDS011;8328;52.206;21.006;2024-02-26T14:00:00;116.53;;;41.13;;
16436;SDS011;8328;52.206;21.006;2024-02-26T14:02:26;109.07;;;38.37;;
16436;SDS011;8328;52.206;21.006;2024-02-26T14:04:52;111.00;;;39.60;;
16436;SDS011;8328;52.206;21.006;2024-02-26T14:07:18;108.55;;;38.28;;
16436;SDS011;8328;52.206;21.006;2024-02-26T14:09:44;105.73;;;37.43;;
16436;SDS011;8328;52.206;21.006;2024-02-26T14:12:10;105.38;;;37.67;;
16436;SDS011;8328;52.206;21.006;2024-02-26T14:14:36;108.83;;;38.83;;